createdAt,value
2023-02-11T00:00:34.857Z,31.532000
2023-02-11T00:05:17.352Z,31.532000
2023-02-11T00:10:20.002Z,31.268000
2023-02-11T00:15:22.358Z,31.074286
2023-02-11T00:20:24.856Z,30.872000
2023-02-11T00:25:28.071Z,30.560000
2023-02-11T00:30:29.525Z,30.368000
2023-02-11T00:35:32.131Z,29.648000
2023-02-11T00:40:35.953Z,29.312000
2023-02-11T00:45:16.986Z,28.784000
2023-02-11T00:50:19.484Z,28.016000
2023-02-11T00:55:22.244Z,27.422857
2023-02-11T01:00:25.142Z,26.768000
2023-02-11T01:05:27.237Z,25.904000
2023-02-11T01:10:29.542Z,25.244000
2023-02-11T01:15:32.066Z,24.668000
2023-02-11T01:20:34.789Z,24.440000
2023-02-11T01:25:16.878Z,24.212000
2023-02-11T01:30:19.080Z,24.056000
2023-02-11T01:35:22.027Z,23.828000
2023-02-11T01:40:24.347Z,23.565714
2023-02-11T01:45:27.390Z,23.168000
2023-02-11T01:50:30.038Z,22.700000
2023-02-11T01:55:32.146Z,22.328000
2023-02-11T02:00:34.425Z,22.184000
2023-02-11T02:05:16.704Z,21.968000
2023-02-11T02:10:19.334Z,21.836000
2023-02-11T02:15:22.845Z,21.584000
2023-02-11T02:20:24.218Z,21.392857
2023-02-11T02:25:26.441Z,21.380000
2023-02-11T02:30:29.343Z,21.380000
2023-02-11T02:35:31.608Z,21.248000
2023-02-11T02:40:34.161Z,21.020000
2023-02-11T02:45:16.196Z,20.864000
2023-02-11T02:50:19.225Z,20.684000
2023-02-11T02:55:21.272Z,20.636000
2023-02-11T03:00:23.366Z,20.287143
2023-02-11T03:05:25.786Z,20.036000
2023-02-11T03:10:27.899Z,19.940000
2023-02-11T03:15:30.433Z,19.772000
2023-02-11T03:20:32.827Z,19.592000
2023-02-11T03:25:35.891Z,19.628000
2023-02-11T03:30:17.176Z,19.460000
2023-02-11T03:35:19.916Z,19.268000
2023-02-11T03:40:22.359Z,19.142857
2023-02-11T03:45:24.798Z,18.872000
2023-02-11T03:50:27.348Z,18.620000
2023-02-11T03:55:30.014Z,18.416000
2023-02-11T04:00:32.494Z,18.236000
2023-02-11T04:05:34.681Z,18.008000
2023-02-11T04:10:16.430Z,18.104000
2023-02-11T04:15:18.777Z,18.320000
2023-02-11T04:20:21.938Z,18.644000
2023-02-11T04:25:24.582Z,19.245714
2023-02-11T04:30:27.462Z,19.568000
2023-02-11T04:35:30.152Z,20.240000
2023-02-11T04:40:33.028Z,19.868000
2023-02-11T04:45:16.993Z,19.928000
2023-02-11T04:50:19.562Z,20.240000
2023-02-11T04:55:22.203Z,20.540000
2023-02-11T05:00:23.729Z,20.711429
2023-02-11T05:05:26.147Z,20.552000
2023-02-11T05:10:28.507Z,20.120000
2023-02-11T05:15:31.535Z,19.640000
2023-02-11T05:20:35.581Z,19.172000
2023-02-11T05:25:16.885Z,18.812000
2023-02-11T05:30:19.646Z,18.680000
2023-02-11T05:35:21.871Z,18.920000
2023-02-11T05:40:24.113Z,18.924286
2023-02-11T05:45:27.411Z,18.860000
2023-02-11T05:50:30.689Z,19.028000
2023-02-11T05:55:33.611Z,19.508000
2023-02-11T06:00:16.431Z,19.760000
2023-02-11T06:05:18.790Z,19.688000
2023-02-11T06:10:21.723Z,19.496000
2023-02-11T06:15:24.358Z,19.310000
2023-02-11T06:20:27.367Z,18.836000
2023-02-11T06:25:30.696Z,18.800000
2023-02-11T06:30:33.197Z,18.680000
2023-02-11T06:35:35.992Z,18.464000
2023-02-11T06:40:18.387Z,18.260000
2023-02-11T06:45:20.848Z,18.140000
2023-02-11T06:50:23.880Z,18.075714
2023-02-11T06:55:26.766Z,17.816000
2023-02-11T07:00:29.929Z,17.300000
2023-02-11T07:05:32.933Z,17.264000
2023-02-11T07:10:35.478Z,17.312000
2023-02-11T07:15:17.688Z,17.132000
2023-02-11T07:20:21.903Z,17.216000
2023-02-11T07:25:23.286Z,17.150000
2023-02-11T07:30:26.251Z,17.132000
2023-02-11T07:35:28.533Z,17.732000
2023-02-11T07:40:31.023Z,17.948000
2023-02-11T07:45:33.723Z,18.524000
2023-02-11T07:50:17.516Z,18.320000
2023-02-11T07:55:19.389Z,18.320000
2023-02-11T08:00:21.911Z,18.608000
2023-02-11T08:05:24.186Z,18.500000
2023-02-11T08:10:27.684Z,18.596000
2023-02-11T08:15:29.554Z,18.188000
2023-02-11T08:20:32.273Z,18.140000
2023-02-11T08:25:34.641Z,17.876000
2023-02-11T08:30:17.061Z,17.480000
2023-02-11T08:35:19.668Z,17.432000
2023-02-11T08:40:22.225Z,17.227143
2023-02-11T08:45:24.940Z,17.000000
2023-02-11T08:50:28.141Z,16.688000
2023-02-11T08:55:30.836Z,16.316000
2023-02-11T09:00:33.269Z,16.232000
2023-02-11T09:05:35.703Z,16.256000
2023-02-11T09:10:18.370Z,16.328000
2023-02-11T09:15:21.297Z,16.160000
2023-02-11T09:20:24.120Z,16.160000
2023-02-11T09:25:26.814Z,15.992000
2023-02-11T09:30:29.180Z,15.920000
2023-02-11T09:35:32.096Z,15.584000
2023-02-11T09:40:34.523Z,15.212000
2023-02-11T09:45:17.066Z,15.236000
2023-02-11T09:50:20.304Z,15.164000
2023-02-11T09:55:23.441Z,15.491429
2023-02-11T10:00:26.562Z,15.728000
2023-02-11T10:05:30.181Z,15.968000
2023-02-11T10:10:32.999Z,15.788000
2023-02-11T10:15:35.987Z,15.320000
2023-02-11T10:20:18.844Z,15.080000
2023-02-11T10:25:21.011Z,15.092000
2023-02-11T10:30:23.327Z,15.118571
2023-02-11T10:35:25.648Z,15.428000
2023-02-11T10:40:27.885Z,15.356000
2023-02-11T10:45:30.883Z,15.440000
2023-02-11T10:50:34.245Z,15.440000
2023-02-11T10:55:17.111Z,15.440000
2023-02-11T11:00:19.746Z,15.440000
2023-02-11T11:05:22.253Z,15.375714
2023-02-11T11:10:24.960Z,15.200000
2023-02-11T11:15:27.865Z,15.212000
2023-02-11T11:20:30.967Z,14.936000
2023-02-11T11:25:33.949Z,15.020000
2023-02-11T11:30:16.074Z,15.248000
2023-02-11T11:35:18.731Z,15.104000
2023-02-11T11:40:21.923Z,14.948000
2023-02-11T11:45:25.162Z,14.797143
2023-02-11T11:50:27.377Z,14.720000
2023-02-11T11:55:30.287Z,14.636000
2023-02-11T12:00:33.039Z,14.720000
2023-02-11T12:05:35.468Z,14.720000
2023-02-11T12:10:17.746Z,14.720000
2023-02-11T12:15:20.555Z,14.720000
2023-02-11T12:20:22.864Z,14.720000
2023-02-11T12:25:25.336Z,14.720000
2023-02-11T12:30:27.991Z,14.816000
2023-02-11T12:35:30.836Z,14.984000
2023-02-11T12:40:33.181Z,15.368000
2023-02-11T12:45:36.261Z,15.788000
2023-02-11T12:50:18.490Z,16.232000
2023-02-11T12:55:21.624Z,16.136000
2023-02-11T13:00:24.042Z,15.980000
2023-02-11T13:05:26.814Z,15.980000
2023-02-11T13:10:29.409Z,16.112000
2023-02-11T13:15:32.022Z,16.112000
2023-02-11T13:20:34.727Z,15.824000
2023-02-11T13:25:17.886Z,15.572000
2023-02-11T13:30:20.553Z,15.440000
2023-02-11T13:35:23.459Z,15.517143
2023-02-11T13:40:26.767Z,15.488000
2023-02-11T13:45:29.710Z,15.620000
2023-02-11T13:50:32.618Z,15.668000
2023-02-11T13:55:35.330Z,15.716000
2023-02-11T14:00:18.316Z,15.800000
2023-02-11T14:05:20.778Z,15.800000
2023-02-11T14:10:23.638Z,15.800000
2023-02-11T14:15:26.361Z,15.716000
2023-02-11T14:20:29.539Z,15.620000
2023-02-11T14:25:31.963Z,15.584000
2023-02-11T14:30:35.338Z,15.500000
2023-02-11T14:35:17.392Z,15.872000
2023-02-11T14:40:20.054Z,15.968000
2023-02-11T14:45:23.045Z,16.108571
2023-02-11T14:50:26.235Z,15.980000
2023-02-11T14:55:29.031Z,16.064000
2023-02-11T15:00:30.988Z,16.160000
2023-02-11T15:05:33.990Z,16.196000
2023-02-11T15:10:16.500Z,16.400000
2023-02-11T15:15:19.501Z,16.700000
2023-02-11T15:20:22.318Z,16.995714
2023-02-11T15:25:24.769Z,17.228000
2023-02-11T15:30:27.728Z,17.768000
2023-02-11T15:35:30.406Z,18.272000
2023-02-11T15:40:33.325Z,18.692000
2023-02-11T15:45:35.956Z,19.172000
2023-02-11T15:50:18.286Z,19.676000
2023-02-11T15:55:21.071Z,19.856000
2023-02-11T16:00:24.008Z,20.030000
2023-02-11T16:05:28.216Z,20.204000
2023-02-11T16:10:30.341Z,20.192000
2023-02-11T16:15:33.641Z,20.192000
2023-02-11T16:20:16.039Z,20.480000
2023-02-11T16:25:19.106Z,20.216000
2023-02-11T16:30:21.276Z,20.756000
2023-02-11T16:35:24.115Z,21.148571
2023-02-11T16:40:27.826Z,21.380000
2023-02-11T16:45:30.696Z,21.944000
2023-02-11T16:50:32.881Z,22.100000
2023-02-11T16:55:35.647Z,22.052000
2023-02-11T17:00:18.069Z,22.616000
2023-02-11T17:05:20.888Z,22.820000
2023-02-11T17:10:23.869Z,23.102857
2023-02-11T17:15:29.425Z,23.540000
2023-02-11T17:25:16.497Z,24.152000
2023-02-11T17:30:20.260Z,25.172000
2023-02-11T17:35:22.676Z,25.777143
2023-02-11T17:40:24.892Z,27.116000
2023-02-11T17:45:27.187Z,26.408000
2023-02-11T17:50:30.208Z,27.020000
2023-02-11T17:55:32.756Z,26.900000
2023-02-11T18:00:35.834Z,26.240000
2023-02-11T18:05:18.217Z,27.020000
2023-02-11T18:10:20.969Z,27.716000
2023-02-11T18:15:23.728Z,27.680000
2023-02-11T18:20:26.507Z,27.884000
2023-02-11T18:25:28.987Z,28.244000
2023-02-11T18:30:31.739Z,28.856000
2023-02-11T18:35:34.850Z,29.492000
2023-02-11T18:40:17.540Z,30.008000
2023-02-11T18:45:20.207Z,30.260000
2023-02-11T18:50:23.048Z,29.672857
2023-02-11T18:55:26.283Z,29.168000
2023-02-11T19:00:29.094Z,30.788000
2023-02-11T19:05:32.266Z,30.728000
2023-02-11T19:10:35.548Z,31.256000
2023-02-11T19:15:18.010Z,31.364000
2023-02-11T19:20:20.985Z,31.520000
2023-02-11T19:25:24.042Z,32.141429
2023-02-11T19:30:26.839Z,32.336000
2023-02-11T19:35:30.059Z,32.348000
2023-02-11T19:40:33.001Z,31.892000
2023-02-11T19:45:35.680Z,32.384000
2023-02-11T19:50:17.984Z,32.600000
2023-02-11T19:55:21.334Z,32.372000
2023-02-11T20:00:23.327Z,32.025714
2023-02-11T20:05:25.616Z,32.828000
2023-02-11T20:10:28.151Z,33.500000
2023-02-11T20:15:31.762Z,33.560000
2023-02-11T20:20:35.259Z,33.596000
2023-02-11T20:25:17.597Z,33.308000
2023-02-11T20:30:20.073Z,33.440000
2023-02-11T20:35:22.386Z,33.697143
2023-02-11T20:40:24.492Z,33.872000
2023-02-11T20:45:27.050Z,35.840000
2023-02-11T20:50:29.852Z,35.876000
2023-02-11T20:55:33.089Z,35.912000
2023-02-11T21:00:35.747Z,36.752000
2023-02-11T21:05:18.846Z,37.196000
2023-02-11T21:10:22.129Z,37.232000
2023-02-11T21:15:25.100Z,35.792857
2023-02-11T21:20:28.204Z,34.904000
2023-02-11T21:25:31.038Z,35.192000
2023-02-11T21:30:34.323Z,35.828000
2023-02-11T21:35:16.818Z,36.620000
2023-02-11T21:40:22.842Z,36.512000
2023-02-11T21:45:22.427Z,36.860000
2023-02-11T21:50:24.652Z,36.884000
2023-02-11T21:55:27.992Z,37.628000
2023-02-11T22:00:31.577Z,38.444000
2023-02-11T22:05:34.614Z,40.004000
2023-02-11T22:10:17.465Z,38.576000
2023-02-11T22:15:20.550Z,37.916000
2023-02-11T22:20:23.695Z,37.001429
2023-02-11T22:25:26.741Z,36.248000
2023-02-11T22:30:29.833Z,36.320000
2023-02-11T22:35:32.552Z,36.428000
2023-02-11T22:40:34.951Z,36.644000
2023-02-11T22:45:17.417Z,36.884000
2023-02-11T22:50:19.961Z,36.416000
2023-02-11T22:55:22.622Z,37.490000
2023-02-11T23:00:26.222Z,36.032000
2023-02-11T23:05:29.014Z,35.312000
2023-02-11T23:10:31.427Z,36.452000
2023-02-11T23:15:34.633Z,37.028000
2023-02-11T23:20:16.977Z,35.888000
2023-02-11T23:25:21.239Z,35.324000
2023-02-11T23:30:23.629Z,35.034286
2023-02-11T23:35:25.514Z,35.084000
2023-02-11T23:40:28.510Z,35.120000
2023-02-11T23:45:32.624Z,35.288000
2023-02-11T23:50:35.100Z,34.652000
2023-02-11T23:55:18.447Z,33.800000
